map of GFN home
GFN - Airport
Location
City:  Grafton, New South Wales, Australia
ICAO:YGFN
IATA:GFN

Details
Type:Airport (Aerodrome, Airfield)
Latitude:2945'34"S (-29.759443)
Longitude:15301'48"E (153.030000)
Datum:WGS 1984
Elevation:110 ft (34 m)
Variation:11.70E (WMM2015 magnetic declination)
0.01 annual change
Runways:1
Longest:5607 × 98 ft (1709 × 30 m), paved

Time
Time Zone:UTC+10 (DST+11)
Local Time:

Weather
METAR:YGFN 190900Z AUTO 13005KT 9999 // NCD 23/12 Q1014

Related Locations
Nearby:
Farthest:SMA: 11923 mi / 19188 km
Santa Maria, 20, PT

Find:

   beyond  
but within

Other Information
Maps:
NOTAMs:
Links:
Sources:

  
flag of Australia
flag of New South Wales
  

Sectional Chart

Flight Planning
at skyvector.com

Satellite Image

Google Maps Satellite view

 

Copyright © 2004-2018 Karl L. Swartz. All rights reserved.
The Great Circle Mapper name and logo are trademarks of the Great Circle Mapper.
All other trademarks mentioned herein belong to their respective owners.
Please see credits for attibutions and further copyright information.

  Follow gcmap on Facebook Follow gcmap on Twitter Follow gcmap on Google+ GCmap on LinkedIn

hCard Microformat

Geo Microformat